This is the latest recevied weather packets stored in our database for station/object LY3FF-10. If no packets are shown the sender has not sent any weather packets the latest 1 day(s).
| Time | Temp. | Humidity | Pressure | Rain* | Wind** | Luminosity | Snow |
|---|---|---|---|---|---|---|---|
| 1836274534 | 13.33° C | 86% | 1020.4 hPa | - | - | - | - |
| 1836274471 | 12.78° C | 85% | 1020.5 hPa | - | - | - | - |
| 1778014023 | 13.89° C | 65% | 988.5 hPa | - | - | - | - |
| 1778011577 | 14.44° C | 59% | 987.2 hPa | - | - | - | - |
| 1778009107 | 16.67° C | 49% | 987.8 hPa | - | - | - | - |
| 1778008373 | 16.67° C | 49% | 987.9 hPa | - | - | - | - |
| 1778007516 | 17.78° C | 49% | 988.1 hPa | - | - | - | - |
| 1778005170 | 17.22° C | 49% | 988.1 hPa | - | - | - | - |
| 1778004337 | 17.78° C | 49% | 987.8 hPa | - | - | - | - |
| 1778002721 | 18.33° C | 48% | 988.2 hPa | - | - | - | - |
| 1778001981 | 17.78° C | 48% | 988.2 hPa | - | - | - | - |
| 1777999512 | 18.89° C | 46% | 988.1 hPa | - | - | - | - |
| 1777997768 | 19.44° C | 46% | 988.1 hPa | - | - | - | - |
| 1777997043 | 20° C | 46% | 988.1 hPa | - | - | - | - |
| 1777996223 | 20.56° C | 46% | 988.2 hPa | - | - | - | - |
| 1777995467 | 20° C | 46% | 988.2 hPa | - | - | - | - |
| 1777994613 | 19.44° C | 46% | 988.2 hPa | - | - | - | - |
| 1777991357 | 22.78° C | 37% | 988.5 hPa | - | - | - | - |
| 1777990533 | 22.78° C | 36% | 988.4 hPa | - | - | - | - |
| 1777989742 | 23.33° C | 35% | 988.5 hPa | - | - | - | - |
| 1777988998 | 25.56° C | 35% | 988.6 hPa | - | - | - | - |
| 1777988217 | 29.44° C | 35% | 988.7 hPa | - | - | - | - |
| 1777985699 | 22.78° C | 36% | 988.9 hPa | - | - | - | - |
| 1777984864 | 23.89° C | 36% | 989 hPa | - | - | - | - |
| 1777982388 | 33.33° C | 35% | 989.3 hPa | - | - | - | - |
* Rain since midnight (hover to see other rain measurements)
** Current wind speed in m/s (hover to see current wind gust speed)